createdAt,value
2023-04-28T00:01:07.104Z,8.13
2023-04-28T00:06:11.278Z,8.20
2023-04-28T00:11:13.954Z,8.43
2023-04-28T00:16:18.014Z,8.20
2023-04-28T00:21:20.819Z,7.90
2023-04-28T00:26:23.500Z,7.60
2023-04-28T00:31:27.512Z,7.77
2023-04-28T00:36:32.235Z,7.80
2023-04-28T00:41:35.932Z,7.80
2023-04-28T00:46:39.929Z,7.67
2023-04-28T00:51:42.643Z,7.30
2023-04-28T00:56:45.620Z,7.73
2023-04-28T01:01:50.510Z,7.70
2023-04-28T01:06:54.523Z,8.23
2023-04-28T01:11:58.357Z,7.37
2023-04-28T01:17:02.751Z,7.53
2023-04-28T01:22:05.614Z,7.80
2023-04-28T01:27:09.616Z,6.60
2023-04-28T01:32:12.439Z,7.60
2023-04-28T01:37:15.207Z,6.73
2023-04-28T01:42:19.257Z,7.77
2023-04-28T01:47:21.930Z,7.70
2023-04-28T01:52:24.620Z,7.37
2023-04-28T01:57:29.346Z,7.77
2023-04-28T02:02:32.265Z,7.67
2023-04-28T02:07:35.152Z,8.10
2023-04-28T02:12:39.242Z,7.67
2023-04-28T02:17:42.018Z,7.33
2023-04-28T02:22:44.703Z,8.60
2023-04-28T02:27:48.691Z,7.97
2023-04-28T02:32:51.798Z,8.30
2023-04-28T02:37:57.275Z,7.90
2023-04-28T02:43:01.535Z,8.60
2023-04-28T02:48:04.659Z,8.50
2023-04-28T02:53:07.302Z,8.37
2023-04-28T02:58:11.478Z,8.33
2023-04-28T03:03:14.489Z,8.20
2023-04-28T03:08:17.666Z,7.40
2023-04-28T03:13:21.662Z,7.83
2023-04-28T03:18:24.383Z,8.03
2023-04-28T03:23:27.021Z,7.73
2023-04-28T03:28:31.041Z,8.17
2023-04-28T03:33:33.850Z,8.00
2023-04-28T03:38:36.494Z,8.07
2023-04-28T03:43:40.533Z,8.27
2023-04-28T03:48:43.201Z,7.73
2023-04-28T03:53:45.876Z,8.40
2023-04-28T03:58:49.879Z,7.73
2023-04-28T04:03:52.894Z,9.13
2023-04-28T04:08:55.956Z,8.13
2023-04-28T04:14:00.005Z,7.97
2023-04-28T04:19:02.767Z,7.00
2023-04-28T04:24:05.907Z,7.20
2023-04-28T04:29:10.024Z,7.57
2023-04-28T04:34:12.725Z,7.53
2023-04-28T04:39:15.619Z,7.67
2023-04-28T04:44:19.960Z,7.60
2023-04-28T04:49:22.821Z,6.63
2023-04-28T04:54:25.576Z,7.43
2023-04-28T04:59:29.612Z,7.60
2023-04-28T05:04:32.573Z,7.30
2023-04-28T05:09:35.380Z,7.03
2023-04-28T05:14:39.350Z,7.60
2023-04-28T05:19:42.040Z,7.63
2023-04-28T05:24:44.688Z,7.30
2023-04-28T05:29:48.687Z,7.63
2023-04-28T05:34:51.372Z,6.87
2023-04-28T05:39:54.010Z,5.70
2023-04-28T05:44:57.995Z,5.83
2023-04-28T05:50:00.691Z,5.33
2023-04-28T05:55:03.518Z,5.70
2023-04-28T06:00:08.872Z,5.40
2023-04-28T06:05:11.747Z,5.30
2023-04-28T06:10:14.807Z,5.27
2023-04-28T06:15:19.072Z,5.80
2023-04-28T06:20:21.937Z,5.50
2023-04-28T06:25:24.765Z,5.53
2023-04-28T06:30:29.013Z,5.20
2023-04-28T06:35:31.754Z,4.70
2023-04-28T06:40:34.483Z,5.13
2023-04-28T06:45:38.847Z,4.70
2023-04-28T06:50:43.589Z,4.97
2023-04-28T06:55:46.712Z,5.20
2023-04-28T07:00:50.778Z,5.00
2023-04-28T07:05:53.577Z,4.77
2023-04-28T07:10:56.401Z,4.90
2023-04-28T07:16:00.748Z,4.60
2023-04-28T07:21:05.410Z,4.30
2023-04-28T07:26:08.441Z,4.75
2023-04-28T07:31:12.519Z,4.30
2023-04-28T07:36:15.395Z,4.40
2023-04-28T07:41:18.761Z,4.93
2023-04-28T07:46:23.814Z,4.28
2023-04-28T07:51:26.769Z,4.22
2023-04-28T07:56:29.539Z,4.38
2023-04-28T08:01:33.592Z,4.07
2023-04-28T08:06:37.121Z,4.43
2023-04-28T08:11:39.830Z,4.30
2023-04-28T08:16:43.820Z,4.57
2023-04-28T08:21:46.695Z,4.30
2023-04-28T08:26:49.498Z,4.30
2023-04-28T08:31:53.490Z,3.97
2023-04-28T08:36:56.283Z,4.00
2023-04-28T08:41:59.062Z,3.90
2023-04-28T08:47:05.924Z,4.00
2023-04-28T08:52:12.520Z,3.92
2023-04-28T08:57:15.428Z,3.85
2023-04-28T09:02:21.176Z,4.38
2023-04-28T09:07:24.190Z,4.10
2023-04-28T09:12:38.233Z,3.97
2023-04-28T09:17:52.085Z,3.75
2023-04-28T09:22:57.552Z,3.45
2023-04-28T09:28:00.338Z,3.50
2023-04-28T09:33:10.704Z,3.70
2023-04-28T09:38:14.334Z,3.22
2023-04-28T09:43:25.450Z,3.22
2023-04-28T09:48:32.344Z,3.30
2023-04-28T09:53:35.813Z,3.00
2023-04-28T09:58:41.994Z,3.13
2023-04-28T10:03:47.482Z,2.80
2023-04-28T10:08:52.203Z,2.80
2023-04-28T10:13:55.703Z,2.95
2023-04-28T10:19:00.491Z,3.28
2023-04-28T10:24:13.905Z,2.97
2023-04-28T10:29:16.664Z,2.78
2023-04-28T10:34:29.579Z,2.88
2023-04-28T10:39:33.936Z,3.08
2023-04-28T10:44:43.767Z,2.63
2023-04-28T10:50:07.764Z,4.10
2023-04-28T10:55:32.884Z,4.05
2023-04-28T11:00:35.857Z,5.10
2023-04-28T11:05:40.169Z,5.75
2023-04-28T11:11:13.476Z,6.80
2023-04-28T11:16:18.201Z,8.10
2023-04-28T11:21:23.607Z,9.13
2023-04-28T11:26:26.629Z,8.18
2023-04-28T11:31:29.396Z,7.90
2023-04-28T11:36:35.743Z,7.35
2023-04-28T11:41:39.753Z,7.45
2023-04-28T11:46:46.906Z,7.22
2023-04-28T11:51:51.896Z,5.43
2023-04-28T11:56:56.181Z,5.07
2023-04-28T12:02:00.904Z,5.45
2023-04-28T12:07:06.947Z,5.35
2023-04-28T12:12:11.895Z,4.97
2023-04-28T12:17:25.477Z,4.28
2023-04-28T12:22:30.051Z,4.25
2023-04-28T12:27:32.985Z,5.28
2023-04-28T12:32:40.591Z,5.57
2023-04-28T12:37:45.170Z,5.80
2023-04-28T12:42:48.311Z,6.88
2023-04-28T12:47:51.257Z,6.70
2023-04-28T12:52:56.201Z,7.90
2023-04-28T12:57:59.371Z,8.80
2023-04-28T13:03:02.157Z,8.02
2023-04-28T13:08:06.633Z,8.27
2023-04-28T13:13:09.269Z,7.90
2023-04-28T13:18:12.365Z,9.20
2023-04-28T13:23:16.317Z,8.00
2023-04-28T13:28:19.142Z,9.13
2023-04-28T13:33:22.848Z,9.07
2023-04-28T13:38:27.737Z,7.97
2023-04-28T13:43:31.051Z,7.82
2023-04-28T13:48:33.795Z,9.00
2023-04-28T13:53:38.605Z,9.27
2023-04-28T13:58:41.483Z,8.68
2023-04-28T14:03:44.633Z,8.40
2023-04-28T14:08:48.909Z,8.35
2023-04-28T14:13:51.533Z,8.25
2023-04-28T14:18:54.211Z,7.07
2023-04-28T14:23:58.207Z,7.47
2023-04-28T14:29:00.992Z,7.90
2023-04-28T14:34:03.962Z,7.68
2023-04-28T14:39:07.916Z,7.20
2023-04-28T14:44:10.646Z,7.60
2023-04-28T14:49:14.304Z,7.47
2023-04-28T14:54:18.405Z,6.80
2023-04-28T14:59:21.074Z,6.82
2023-04-28T15:04:28.772Z,6.55
2023-04-28T15:09:32.915Z,6.30
2023-04-28T15:14:35.578Z,5.90
2023-04-28T15:19:38.711Z,6.20
2023-04-28T15:24:42.715Z,6.32
2023-04-28T15:29:46.010Z,6.00
2023-04-28T15:34:49.097Z,6.30
2023-04-28T15:39:53.339Z,6.70
2023-04-28T15:44:56.038Z,6.82
2023-04-28T15:49:59.540Z,5.95
2023-04-28T15:55:03.629Z,6.68
2023-04-28T16:00:07.655Z,6.70
2023-04-28T16:05:11.230Z,6.03
2023-04-28T16:10:16.719Z,6.25
2023-04-28T16:15:19.704Z,6.57
2023-04-28T16:20:22.499Z,6.75
2023-04-28T16:25:26.743Z,6.60
2023-04-28T16:30:29.373Z,6.82
2023-04-28T16:35:32.055Z,6.70
2023-04-28T16:40:36.193Z,6.47
2023-04-28T16:45:38.905Z,6.80
2023-04-28T16:50:41.593Z,7.03
2023-04-28T16:55:45.908Z,7.40
2023-04-28T17:00:48.608Z,6.40
2023-04-28T17:05:51.236Z,6.07
2023-04-28T17:10:55.205Z,5.75
2023-04-28T17:15:58.526Z,5.57
2023-04-28T17:21:01.331Z,5.97
2023-04-28T17:26:06.287Z,6.00
2023-04-28T17:31:08.960Z,5.88
2023-04-28T17:36:11.608Z,5.95
2023-04-28T17:41:16.737Z,5.60
2023-04-28T17:46:19.543Z,6.00
2023-04-28T17:51:22.286Z,5.93
2023-04-28T17:56:26.450Z,6.32
2023-04-28T18:01:29.115Z,6.25
2023-04-28T18:06:31.796Z,5.90
2023-04-28T18:11:35.899Z,6.10
2023-04-28T18:16:38.707Z,5.40
2023-04-28T18:21:41.478Z,5.68
2023-04-28T18:26:45.453Z,5.35
2023-04-28T18:31:48.194Z,5.72
2023-04-28T18:36:50.876Z,5.70
2023-04-28T18:41:54.869Z,6.00
2023-04-28T18:46:57.564Z,5.57
2023-04-28T18:52:03.693Z,6.20
2023-04-28T18:57:07.719Z,6.20
2023-04-28T19:02:10.432Z,6.82
2023-04-28T19:07:13.108Z,7.68
2023-04-28T19:12:17.712Z,7.70
2023-04-28T19:17:20.427Z,7.93
2023-04-28T19:22:30.663Z,7.63
2023-04-28T19:27:36.515Z,8.00
2023-04-28T19:32:39.844Z,7.93
2023-04-28T19:37:43.041Z,8.52
2023-04-28T19:42:47.179Z,9.20
2023-04-28T19:47:49.907Z,8.65
2023-04-28T19:52:52.620Z,8.90
2023-04-28T19:57:57.498Z,9.63
2023-04-28T20:03:00.746Z,8.43
2023-04-28T20:08:03.550Z,8.52
2023-04-28T20:13:07.946Z,8.80
2023-04-28T20:18:10.657Z,8.13
2023-04-28T20:23:13.368Z,8.23
2023-04-28T20:28:17.429Z,8.30
2023-04-28T20:33:20.119Z,8.38
2023-04-28T20:38:23.031Z,8.75
2023-04-28T20:43:28.025Z,9.05
2023-04-28T20:48:30.744Z,8.70
2023-04-28T20:53:33.438Z,9.35
2023-04-28T20:58:37.789Z,8.32
2023-04-28T21:03:41.384Z,8.23
2023-04-28T21:08:45.032Z,8.20
2023-04-28T21:13:49.008Z,7.53
2023-04-28T21:18:51.921Z,6.68
2023-04-28T21:23:55.391Z,7.00
2023-04-28T21:28:59.379Z,7.47
2023-04-28T21:34:02.016Z,6.90
2023-04-28T21:39:05.388Z,6.50
2023-04-28T21:44:09.342Z,6.57
2023-04-28T21:49:13.030Z,7.10
2023-04-28T21:54:16.136Z,6.75
2023-04-28T21:59:20.098Z,7.10
2023-04-28T22:04:23.198Z,7.22
2023-04-28T22:09:27.236Z,7.53
2023-04-28T22:19:36.780Z,8.65
2023-04-28T22:24:39.780Z,8.43
2023-04-28T22:29:43.773Z,9.70
2023-04-28T22:34:46.458Z,9.82
2023-04-28T22:39:49.276Z,10.43
2023-04-28T22:44:53.424Z,10.53
2023-04-28T22:49:56.223Z,10.98
2023-04-28T22:54:58.967Z,11.40
2023-04-28T23:00:04.002Z,12.02
2023-04-28T23:05:07.320Z,13.23
2023-04-28T23:10:11.506Z,13.60
2023-04-28T23:15:16.653Z,15.47
2023-04-28T23:20:19.392Z,16.10
2023-04-28T23:25:22.561Z,15.80
2023-04-28T23:30:26.782Z,17.07
2023-04-28T23:35:29.571Z,17.40
2023-04-28T23:40:32.207Z,17.53
2023-04-28T23:45:36.397Z,18.60
2023-04-28T23:50:39.097Z,18.90
2023-04-28T23:55:41.713Z,16.87
